Terminal Aerodrome Forecast
Issued by NWS Melbourne, FL

Home | Current Version | Previous Version | Text Only | Print | Product List | Glossary On
Versions: 1 2 3 4 5 6 7 8 9 10 11 12 13 14 15
000
FTUS42 KMLB 311500 AAA
TAFDAB
TAF AMD
KDAB 311528Z 3115/0112 12004KT P6SM VCSH FEW020 SCT025 SCT050
      TEMPO 3115/3117 4SM SHRA BKN025
     FM311800 10008KT P6SM SCT035
     FM010000 13003KT P6SM FEW050 SCT250=

USA.gov is the U.S. government's official web portal to all federal, state and local government web resources and services.